createdAt,value
2022-10-05T00:01:27.341Z,96990.41
2022-10-05T00:04:01.091Z,96991.25
2022-10-05T00:06:31.174Z,96987.28
2022-10-05T00:09:01.737Z,96992.25
2022-10-05T00:11:30.199Z,96998.91
2022-10-05T00:14:00.676Z,96997.44
2022-10-05T00:16:30.457Z,96996.31
2022-10-05T00:19:00.604Z,97009.22
2022-10-05T00:21:30.291Z,97005.47
2022-10-05T00:23:59.698Z,97002.81
2022-10-05T00:26:33.159Z,97002.63
2022-10-05T00:29:03.644Z,97001.66
2022-10-05T00:31:36.407Z,96993.84
2022-10-05T00:34:04.799Z,96998.63
2022-10-05T00:36:33.532Z,96993.47
2022-10-05T00:39:03.334Z,96989.50
2022-10-05T00:41:40.696Z,96986.31
2022-10-05T00:44:35.719Z,96984.97
2022-10-05T00:47:14.527Z,96981.84
2022-10-05T00:50:01.893Z,96971.03
2022-10-05T00:52:40.179Z,96958.78
2022-10-05T00:55:19.399Z,96965.06
2022-10-05T00:57:57.732Z,96951.97
2022-10-05T01:00:29.016Z,96950.13
2022-10-05T01:03:02.760Z,96943.88
2022-10-05T01:05:47.074Z,96940.91
2022-10-05T01:08:26.457Z,96944.25
2022-10-05T01:11:05.014Z,96937.63
2022-10-05T01:13:48.394Z,96938.31
2022-10-05T01:16:24.243Z,96932.84
2022-10-05T01:19:00.190Z,96931.69
2022-10-05T01:21:32.603Z,96937.81
2022-10-05T01:24:31.847Z,96932.38
2022-10-05T01:27:18.744Z,96935.00
2022-10-05T01:29:55.687Z,96930.69
2022-10-05T01:32:31.301Z,96923.44
2022-10-05T01:35:09.322Z,96932.06
2022-10-05T01:37:47.486Z,96925.09
2022-10-05T01:40:25.774Z,96912.84
2022-10-05T01:43:05.515Z,96909.34
2022-10-05T01:45:46.261Z,96908.38
2022-10-05T01:48:21.640Z,96904.88
2022-10-05T01:51:02.013Z,96905.03
2022-10-05T01:53:41.466Z,96893.59
2022-10-05T01:56:20.361Z,96893.28
2022-10-05T01:58:57.728Z,96897.59
2022-10-05T02:01:33.339Z,96899.25
2022-10-05T02:04:08.410Z,96900.25
2022-10-05T02:06:40.320Z,96888.81
2022-10-05T02:09:15.467Z,96893.44
2022-10-05T02:11:49.304Z,96882.31
2022-10-05T02:14:21.784Z,96881.00
2022-10-05T02:16:54.136Z,96877.00
2022-10-05T02:19:25.485Z,96880.81
2022-10-05T02:22:00.398Z,96876.97
2022-10-05T02:24:33.449Z,96878.13
2022-10-05T02:27:05.032Z,96883.44
2022-10-05T02:29:37.540Z,96873.66
2022-10-05T02:32:16.301Z,96880.94
2022-10-05T02:34:45.242Z,96884.03
2022-10-05T02:37:25.423Z,96869.69
2022-10-05T02:40:06.713Z,96870.66
2022-10-05T02:42:47.357Z,96873.31
2022-10-05T02:45:24.836Z,96873.31
2022-10-05T02:48:05.139Z,96873.31
2022-10-05T02:50:42.739Z,96876.81
2022-10-05T02:53:23.263Z,96864.22
2022-10-05T02:56:01.068Z,96873.00
2022-10-05T02:58:35.125Z,96862.25
2022-10-05T03:01:14.052Z,96866.38
2022-10-05T03:03:48.692Z,96870.69
2022-10-05T03:06:23.458Z,96880.59
2022-10-05T03:09:02.508Z,96876.16
2022-10-05T03:11:40.013Z,96874.34
2022-10-05T03:14:15.390Z,96874.34
2022-10-05T03:16:56.139Z,96883.09
2022-10-05T03:19:39.557Z,96876.16
2022-10-05T03:22:16.831Z,96884.94
2022-10-05T03:25:15.864Z,96875.16
2022-10-05T03:27:54.799Z,96875.31
2022-10-05T03:30:26.606Z,96862.25
2022-10-05T03:33:04.231Z,96851.97
2022-10-05T03:35:46.472Z,96876.81
2022-10-05T03:38:24.545Z,96881.72
2022-10-05T03:40:58.360Z,96878.25
2022-10-05T03:44:09.703Z,96883.56
2022-10-05T03:46:54.712Z,96875.75
2022-10-05T03:49:33.299Z,96877.59
2022-10-05T03:52:10.188Z,96878.19
2022-10-05T03:54:44.026Z,96890.31
2022-10-05T03:57:15.921Z,96887.69
2022-10-05T03:59:53.202Z,96888.47
2022-10-05T04:02:26.223Z,96876.91
2022-10-05T04:05:00.318Z,96892.97
2022-10-05T04:07:42.678Z,96884.34
2022-10-05T04:10:18.273Z,96892.47
2022-10-05T04:12:52.072Z,96901.50
2022-10-05T04:15:32.966Z,96904.13
2022-10-05T04:18:06.394Z,96906.72
2022-10-05T04:20:41.038Z,96899.78
2022-10-05T04:23:19.749Z,96905.94
2022-10-05T04:25:52.860Z,96905.53
2022-10-05T04:28:31.799Z,96902.50
2022-10-05T04:31:03.872Z,96887.25
2022-10-05T04:33:33.215Z,96884.81
2022-10-05T04:36:22.928Z,96890.19
2022-10-05T04:39:03.659Z,96884.56
2022-10-05T04:41:46.573Z,96883.25
2022-10-05T04:44:28.844Z,96904.97
2022-10-05T04:47:19.945Z,96904.66
2022-10-05T04:50:08.716Z,96906.97
2022-10-05T04:52:49.093Z,96891.78
2022-10-05T04:55:29.378Z,96892.63
2022-10-05T04:58:06.826Z,96894.28
2022-10-05T05:00:45.482Z,96888.00
2022-10-05T05:03:50.507Z,96894.13
2022-10-05T05:06:30.766Z,96881.72
2022-10-05T05:09:15.118Z,96884.34
2022-10-05T05:11:56.075Z,96878.25
2022-10-05T05:14:42.831Z,96883.53
2022-10-05T05:17:24.736Z,96874.78
2022-10-05T05:20:01.703Z,96880.06
2022-10-05T05:22:36.753Z,96882.53
2022-10-05T05:25:21.282Z,96893.97
2022-10-05T05:27:54.924Z,96900.91
2022-10-05T05:30:25.627Z,96904.22
2022-10-05T05:33:15.427Z,96904.75
2022-10-05T05:36:04.247Z,96908.22
2022-10-05T05:38:36.373Z,96923.97
2022-10-05T05:41:12.912Z,96918.50
2022-10-05T05:43:54.227Z,96919.03
2022-10-05T05:46:51.200Z,96918.22
2022-10-05T05:49:22.690Z,96925.81
2022-10-05T05:51:59.279Z,96918.56
2022-10-05T05:54:38.250Z,96908.47
2022-10-05T05:57:13.674Z,96909.00
2022-10-05T05:59:55.659Z,96911.16
2022-10-05T06:02:29.607Z,96910.03
2022-10-05T06:05:04.001Z,96915.00
2022-10-05T06:07:32.822Z,96918.47
2022-10-05T06:10:07.356Z,96913.03
2022-10-05T06:12:39.457Z,96918.03
2022-10-05T06:15:29.295Z,96924.66
2022-10-05T06:18:00.643Z,96920.69
2022-10-05T06:20:34.126Z,96910.78
2022-10-05T06:23:07.231Z,96915.63
2022-10-05T06:25:45.814Z,96911.66
2022-10-05T06:28:16.168Z,96922.75
2022-10-05T06:31:02.641Z,96924.09
2022-10-05T06:33:44.078Z,96919.13
2022-10-05T06:36:38.976Z,96918.69
2022-10-05T06:39:45.665Z,96920.84
2022-10-05T06:42:31.432Z,96920.34
2022-10-05T06:45:08.924Z,96925.19
2022-10-05T06:47:50.819Z,96920.38
2022-10-05T06:50:33.407Z,96927.84
2022-10-05T06:53:17.162Z,96930.19
2022-10-05T06:55:53.237Z,96928.72
2022-10-05T06:58:36.392Z,96932.50
2022-10-05T07:01:12.071Z,96941.66
2022-10-05T07:04:00.392Z,96936.56
2022-10-05T07:06:35.355Z,96944.00
2022-10-05T07:09:25.362Z,96939.56
2022-10-05T07:12:17.059Z,96938.91
2022-10-05T07:15:07.700Z,96939.06
2022-10-05T07:17:47.125Z,96936.75
2022-10-05T07:20:25.311Z,96936.09
2022-10-05T07:23:15.379Z,96935.59
2022-10-05T07:25:51.180Z,96933.13
2022-10-05T07:28:29.226Z,96930.97
2022-10-05T07:31:06.667Z,96928.63
2022-10-05T07:33:44.406Z,96922.81
2022-10-05T07:36:38.686Z,96930.44
2022-10-05T07:39:15.178Z,96929.78
2022-10-05T07:41:47.761Z,96925.44
2022-10-05T07:44:23.745Z,96926.44
2022-10-05T07:47:02.235Z,96935.22
2022-10-05T07:49:40.541Z,96926.59
2022-10-05T07:52:16.413Z,96931.22
2022-10-05T07:54:50.448Z,96934.88
2022-10-05T07:57:27.315Z,96934.19
2022-10-05T08:00:04.239Z,96927.16
2022-10-05T08:02:39.016Z,96930.81
2022-10-05T08:05:15.166Z,96917.84
2022-10-05T08:07:55.542Z,96922.66
2022-10-05T08:10:33.977Z,96923.97
2022-10-05T08:13:11.426Z,96927.41
2022-10-05T08:15:43.005Z,96932.03
2022-10-05T08:18:18.921Z,96947.28
2022-10-05T08:20:52.237Z,96942.94
2022-10-05T08:23:31.756Z,96937.28
2022-10-05T08:26:21.786Z,96925.97
2022-10-05T08:28:59.635Z,96947.84
2022-10-05T08:31:35.627Z,96932.47
2022-10-05T08:34:22.173Z,96929.94
2022-10-05T08:37:01.729Z,96930.22
2022-10-05T08:39:37.569Z,96939.00
2022-10-05T08:42:39.989Z,96940.78
2022-10-05T08:45:48.164Z,96934.72
2022-10-05T08:48:32.889Z,96931.16
2022-10-05T08:51:23.301Z,96936.47
2022-10-05T08:54:20.360Z,96940.06
2022-10-05T08:57:06.847Z,96933.38
2022-10-05T09:00:10.253Z,96928.13
2022-10-05T09:02:58.899Z,96943.22
2022-10-05T09:06:10.267Z,96951.81
2022-10-05T09:09:14.195Z,96950.00
2022-10-05T09:11:54.330Z,96944.00
2022-10-05T09:14:34.553Z,96950.56
2022-10-05T09:17:22.836Z,96945.13
2022-10-05T09:20:10.179Z,96952.66
2022-10-05T09:22:59.759Z,96946.84
2022-10-05T09:25:44.846Z,96959.63
2022-10-05T09:28:29.242Z,96960.59
2022-10-05T09:31:15.421Z,96959.84
2022-10-05T09:34:12.529Z,96966.91
2022-10-05T09:37:20.142Z,96964.31
2022-10-05T09:40:21.458Z,96954.38
2022-10-05T09:43:34.211Z,96968.22
2022-10-05T09:46:40.729Z,96952.25
2022-10-05T09:49:34.574Z,96954.16
2022-10-05T09:52:16.474Z,96966.56
2022-10-05T09:55:22.310Z,96962.13
2022-10-05T09:58:16.438Z,96958.69
2022-10-05T10:01:09.248Z,96953.81
2022-10-05T10:04:26.581Z,96956.09
2022-10-05T10:07:35.433Z,96959.00
2022-10-05T10:10:45.170Z,96957.88
2022-10-05T10:14:00.336Z,96949.72
2022-10-05T10:16:53.634Z,96950.63
2022-10-05T10:20:04.625Z,96943.69
2022-10-05T10:23:03.826Z,96951.75
2022-10-05T10:25:53.298Z,96947.91
2022-10-05T10:28:43.096Z,96946.38
2022-10-05T10:31:43.448Z,96943.34
2022-10-05T10:34:37.602Z,96947.09
2022-10-05T10:37:31.802Z,96944.50
2022-10-05T10:40:23.369Z,96947.44
2022-10-05T10:43:13.961Z,96937.63
2022-10-05T10:45:54.268Z,96938.72
2022-10-05T10:48:55.135Z,96941.84
2022-10-05T10:51:45.598Z,96940.22
2022-10-05T10:55:00.011Z,96934.50
2022-10-05T10:57:41.063Z,96945.22
2022-10-05T11:00:29.163Z,96940.91
2022-10-05T11:03:34.303Z,96939.47
2022-10-05T11:06:19.061Z,96942.59
2022-10-05T11:09:22.670Z,96939.72
2022-10-05T11:12:25.878Z,96932.94
2022-10-05T11:15:39.333Z,96927.78
2022-10-05T11:18:16.673Z,96922.59
2022-10-05T11:21:13.004Z,96929.78
2022-10-05T11:24:08.789Z,96916.34
2022-10-05T11:26:53.613Z,96914.47
2022-10-05T11:29:47.335Z,96908.28
2022-10-05T11:32:35.039Z,96905.94
2022-10-05T11:35:20.545Z,96900.97
2022-10-05T11:38:16.315Z,96903.03
2022-10-05T11:41:18.689Z,96904.00
2022-10-05T11:44:09.900Z,96899.78
2022-10-05T11:46:47.056Z,96898.31
2022-10-05T11:49:27.090Z,96897.88
2022-10-05T11:52:09.901Z,96888.75
2022-10-05T11:55:11.362Z,96889.94
2022-10-05T11:57:49.656Z,96887.41
2022-10-05T12:00:20.862Z,96882.81
2022-10-05T12:03:03.137Z,96878.25
2022-10-05T12:05:39.612Z,96877.53
2022-10-05T12:08:21.416Z,96865.47
2022-10-05T12:10:59.723Z,96869.16
2022-10-05T12:13:38.828Z,96870.34
2022-10-05T12:16:13.133Z,96868.03
2022-10-05T12:18:57.532Z,96866.81
2022-10-05T12:21:34.329Z,96860.53
2022-10-05T12:24:14.601Z,96850.06
2022-10-05T12:26:48.508Z,96852.69
2022-10-05T12:29:24.648Z,96851.34
2022-10-05T12:31:59.969Z,96846.50
2022-10-05T12:34:44.846Z,96844.94
2022-10-05T12:37:34.886Z,96844.22
2022-10-05T12:40:07.987Z,96839.94
2022-10-05T12:42:42.074Z,96831.78
2022-10-05T12:45:21.679Z,96838.28
2022-10-05T12:48:08.723Z,96829.63
2022-10-05T12:50:43.288Z,96830.59
2022-10-05T12:53:29.827Z,96834.47
2022-10-05T12:56:05.475Z,96824.06
2022-10-05T12:58:42.843Z,96824.41
2022-10-05T13:01:27.215Z,96824.78
2022-10-05T13:04:11.463Z,96825.13
2022-10-05T13:06:50.093Z,96817.66
2022-10-05T13:09:25.211Z,96813.31
2022-10-05T13:11:58.712Z,96821.16
2022-10-05T13:14:47.376Z,96812.03
2022-10-05T13:17:24.958Z,96816.50
2022-10-05T13:20:05.123Z,96810.88
2022-10-05T13:22:37.690Z,96814.16
2022-10-05T13:25:21.734Z,96808.34
2022-10-05T13:28:14.802Z,96806.56
2022-10-05T13:30:52.638Z,96798.97
2022-10-05T13:33:27.804Z,96799.94
2022-10-05T13:36:07.882Z,96795.94
2022-10-05T13:38:51.973Z,96790.91
2022-10-05T13:41:32.254Z,96793.13
2022-10-05T13:44:17.656Z,96790.78
2022-10-05T13:46:50.373Z,96791.13
2022-10-05T13:49:26.549Z,96789.00
2022-10-05T13:52:01.662Z,96784.19
2022-10-05T13:54:41.755Z,96782.81
2022-10-05T13:57:22.217Z,96783.75
2022-10-05T13:59:54.994Z,96779.31
2022-10-05T14:02:29.933Z,96784.34
2022-10-05T14:05:04.597Z,96787.75
2022-10-05T14:07:35.117Z,96785.94
2022-10-05T14:10:11.283Z,96784.56
2022-10-05T14:12:45.728Z,96788.53
2022-10-05T14:15:22.195Z,96785.72
2022-10-05T14:17:52.770Z,96797.97
2022-10-05T14:20:25.017Z,96794.94
2022-10-05T14:23:00.694Z,96790.84
2022-10-05T14:25:31.619Z,96790.25
2022-10-05T14:28:04.076Z,96795.63
2022-10-05T14:30:33.681Z,96794.56
2022-10-05T14:33:16.263Z,96790.25
2022-10-05T14:35:49.205Z,96793.97
2022-10-05T14:38:21.295Z,96788.81
2022-10-05T14:41:17.323Z,96790.56
2022-10-05T14:43:55.857Z,96794.44
2022-10-05T14:46:29.045Z,96789.25
2022-10-05T14:49:24.208Z,96788.91
2022-10-05T14:51:54.388Z,96789.94
2022-10-05T14:54:36.788Z,96791.00
2022-10-05T14:57:15.572Z,96791.44
2022-10-05T15:00:05.439Z,96787.34
2022-10-05T15:02:58.147Z,96786.75
2022-10-05T15:05:32.500Z,96781.81
2022-10-05T15:08:15.816Z,96773.38
2022-10-05T15:10:50.886Z,96774.66
2022-10-05T15:13:23.328Z,96776.19
2022-10-05T15:15:55.213Z,96775.00
2022-10-05T15:18:32.354Z,96784.59
2022-10-05T15:21:16.706Z,96782.13
2022-10-05T15:23:52.897Z,96777.53
2022-10-05T15:26:36.475Z,96780.81
2022-10-05T15:29:19.619Z,96783.50
2022-10-05T15:31:58.077Z,96781.66
2022-10-05T15:34:36.566Z,96781.66
2022-10-05T15:37:15.082Z,96780.59
2022-10-05T15:39:50.439Z,96783.50
2022-10-05T15:42:23.775Z,96783.75
2022-10-05T15:45:05.494Z,96789.38
2022-10-05T15:47:47.091Z,96790.25
2022-10-05T15:50:23.899Z,96782.66
2022-10-05T15:52:57.201Z,96786.25
2022-10-05T15:55:38.210Z,96785.47
2022-10-05T15:58:39.117Z,96788.72
2022-10-05T16:01:14.158Z,96787.59
2022-10-05T16:03:50.171Z,96786.25
2022-10-05T16:06:47.173Z,96789.84
2022-10-05T16:09:29.679Z,96793.88
2022-10-05T16:12:06.167Z,96798.13
2022-10-05T16:14:48.779Z,96794.31
2022-10-05T16:17:29.817Z,96796.25
2022-10-05T16:20:14.621Z,96798.03
2022-10-05T16:22:51.015Z,96802.69
2022-10-05T16:25:23.523Z,96795.34
2022-10-05T16:28:07.205Z,96806.78
2022-10-05T16:30:47.613Z,96811.81
2022-10-05T16:33:26.952Z,96813.97
2022-10-05T16:36:04.920Z,96812.78
2022-10-05T16:38:44.314Z,96808.66
2022-10-05T16:41:28.354Z,96823.34
2022-10-05T16:44:05.127Z,96823.00
2022-10-05T16:46:40.932Z,96821.59
2022-10-05T16:49:23.969Z,96817.53
2022-10-05T16:51:59.123Z,96825.78
2022-10-05T16:54:32.732Z,96825.41
2022-10-05T16:57:06.557Z,96821.31
2022-10-05T17:00:18.568Z,96818.66
2022-10-05T17:03:04.163Z,96819.69
2022-10-05T17:05:55.813Z,96827.53
2022-10-05T17:09:11.184Z,96826.09
2022-10-05T17:11:56.175Z,96829.41
2022-10-05T17:14:38.996Z,96838.25
2022-10-05T17:17:30.707Z,96841.56
2022-10-05T17:20:17.425Z,96842.59
2022-10-05T17:22:52.959Z,96843.41
2022-10-05T17:25:29.728Z,96842.19
2022-10-05T17:28:17.860Z,96834.75
2022-10-05T17:30:58.927Z,96845.88
2022-10-05T17:33:29.100Z,96840.91
2022-10-05T17:36:17.224Z,96848.34
2022-10-05T17:39:13.074Z,96841.94
2022-10-05T17:41:44.985Z,96855.09
2022-10-05T17:44:34.149Z,96853.84
2022-10-05T17:47:04.108Z,96853.63
2022-10-05T17:50:11.310Z,96852.38
2022-10-05T17:53:01.854Z,96851.72
2022-10-05T17:56:02.429Z,96854.38
2022-10-05T17:59:07.899Z,96856.22
2022-10-05T18:01:38.117Z,96859.88
2022-10-05T18:04:41.018Z,96855.97
2022-10-05T18:07:24.294Z,96853.03
2022-10-05T18:10:02.181Z,96863.50
2022-10-05T18:13:10.855Z,96856.91
2022-10-05T18:15:50.327Z,96868.03
2022-10-05T18:18:57.401Z,96862.03
2022-10-05T18:21:59.908Z,96864.91
2022-10-05T18:24:41.955Z,96864.09
2022-10-05T18:27:46.881Z,96874.78
2022-10-05T18:30:21.555Z,96866.13
2022-10-05T18:33:11.728Z,96873.31
2022-10-05T18:35:51.859Z,96878.03
2022-10-05T18:38:39.414Z,96877.03
2022-10-05T18:41:17.316Z,96880.53
2022-10-05T18:43:53.857Z,96879.69
2022-10-05T18:46:38.019Z,96878.88
2022-10-05T18:49:22.006Z,96877.41
2022-10-05T18:51:56.483Z,96892.63
2022-10-05T18:54:43.127Z,96887.66
2022-10-05T18:57:34.316Z,96887.88
2022-10-05T19:00:07.978Z,96885.41
2022-10-05T19:02:43.014Z,96894.44
2022-10-05T19:05:46.822Z,96891.94
2022-10-05T19:08:21.754Z,96889.50
2022-10-05T19:10:55.637Z,96895.84
2022-10-05T19:13:39.757Z,96900.56
2022-10-05T19:16:22.462Z,96907.16
2022-10-05T19:19:12.326Z,96919.66
2022-10-05T19:21:47.904Z,96916.56
2022-10-05T19:24:29.714Z,96925.78
2022-10-05T19:27:07.768Z,96926.38
2022-10-05T19:29:52.780Z,96923.28
2022-10-05T19:32:31.083Z,96926.56
2022-10-05T19:35:18.999Z,96912.19
2022-10-05T19:37:56.615Z,96928.88
2022-10-05T19:40:31.605Z,96933.19
2022-10-05T19:43:14.285Z,96934.03
2022-10-05T19:45:48.538Z,96932.16
2022-10-05T19:48:29.328Z,96943.88
2022-10-05T19:51:04.094Z,96948.59
2022-10-05T19:53:38.226Z,96955.97
2022-10-05T19:56:20.406Z,96958.00
2022-10-05T19:58:52.093Z,96964.56
2022-10-05T20:01:25.575Z,96974.78
2022-10-05T20:03:55.455Z,96970.66
2022-10-05T20:06:26.929Z,96978.06
2022-10-05T20:08:59.874Z,96982.72
2022-10-05T20:11:29.395Z,96985.81
2022-10-05T20:14:19.968Z,96995.03
2022-10-05T20:17:05.955Z,96986.19
2022-10-05T20:19:56.908Z,96990.88
2022-10-05T20:22:35.240Z,96993.97
2022-10-05T20:25:06.785Z,97009.13
2022-10-05T20:27:46.619Z,97010.53
2022-10-05T20:30:16.963Z,97010.94
2022-10-05T20:32:49.153Z,97012.34
2022-10-05T20:35:18.603Z,97020.25
2022-10-05T20:37:49.955Z,97025.91
2022-10-05T20:40:19.715Z,97032.00
2022-10-05T20:42:48.359Z,97035.03
2022-10-05T20:45:17.304Z,97038.09
2022-10-05T20:47:46.626Z,97050.53
2022-10-05T20:50:15.862Z,97053.66
2022-10-05T20:52:44.868Z,97052.75
2022-10-05T20:55:14.645Z,97063.63
2022-10-05T20:57:43.189Z,97049.91
2022-10-05T21:00:13.212Z,97062.72
2022-10-05T21:02:41.833Z,97056.63
2022-10-05T21:05:10.845Z,97064.44
2022-10-05T21:07:39.598Z,97069.97
2022-10-05T21:10:08.643Z,97064.81
2022-10-05T21:12:38.736Z,97081.38
2022-10-05T21:15:07.952Z,97076.13
2022-10-05T21:17:39.223Z,97087.34
2022-10-05T21:20:11.165Z,97083.97
2022-10-05T21:22:39.556Z,97084.16
2022-10-05T21:25:08.985Z,97088.28
2022-10-05T21:27:39.136Z,97078.41
2022-10-05T21:30:09.137Z,97077.59
2022-10-05T21:32:41.804Z,97080.28
2022-10-05T21:35:12.611Z,97079.28
2022-10-05T21:37:41.004Z,97085.25
2022-10-05T21:40:10.426Z,97087.91
2022-10-05T21:42:40.151Z,97075.41
2022-10-05T21:45:09.707Z,97091.88
2022-10-05T21:47:38.496Z,97100.53
2022-10-05T21:50:08.653Z,97092.34
2022-10-05T21:52:37.215Z,97103.03
2022-10-05T21:55:06.919Z,97092.53
2022-10-05T21:57:36.553Z,97099.50
2022-10-05T22:00:09.452Z,97105.69
2022-10-05T22:02:38.314Z,97097.84
2022-10-05T22:05:06.916Z,97098.69
2022-10-05T22:07:35.466Z,97110.16
2022-10-05T22:10:05.843Z,97105.88
2022-10-05T22:12:34.690Z,97106.84
2022-10-05T22:15:04.837Z,97108.88
2022-10-05T22:17:37.952Z,97118.09
2022-10-05T22:20:07.210Z,97118.91
2022-10-05T22:22:35.543Z,97120.94
2022-10-05T22:25:04.429Z,97122.31
2022-10-05T22:27:35.297Z,97125.34
2022-10-05T22:30:05.699Z,97119.53
2022-10-05T22:32:35.836Z,97119.88
2022-10-05T22:35:09.123Z,97121.25
2022-10-05T22:37:39.706Z,97122.47
2022-10-05T22:40:11.182Z,97115.47
2022-10-05T22:42:40.584Z,97128.97
2022-10-05T22:45:10.074Z,97117.66
2022-10-05T22:47:42.633Z,97123.16
2022-10-05T22:50:11.187Z,97119.84
2022-10-05T22:52:39.541Z,97126.38
2022-10-05T22:55:08.706Z,97131.72
2022-10-05T22:57:39.901Z,97117.72
2022-10-05T23:00:11.477Z,97120.56
2022-10-05T23:02:42.833Z,97123.41
2022-10-05T23:05:13.265Z,97126.28
2022-10-05T23:07:44.129Z,97129.13
2022-10-05T23:10:15.724Z,97126.81
2022-10-05T23:12:44.783Z,97140.31
2022-10-05T23:15:13.328Z,97138.84
2022-10-05T23:17:43.074Z,97146.19
2022-10-05T23:20:11.376Z,97142.72
2022-10-05T23:22:40.406Z,97148.84
2022-10-05T23:25:09.527Z,97150.72
2022-10-05T23:27:39.155Z,97165.69
2022-10-05T23:30:09.941Z,97158.72
2022-10-05T23:32:39.831Z,97158.72
2022-10-05T23:35:12.330Z,97163.19
2022-10-05T23:37:41.674Z,97164.38
2022-10-05T23:40:13.312Z,97168.06
2022-10-05T23:42:42.447Z,97169.88
2022-10-05T23:45:12.662Z,97171.91
2022-10-05T23:47:41.823Z,97180.09
2022-10-05T23:50:11.605Z,97172.44
2022-10-05T23:52:44.404Z,97185.13
2022-10-05T23:55:12.694Z,97179.16
2022-10-05T23:57:41.064Z,97182.16
